sensor_id;sensor_type;location;lat;lon;timestamp;temperature;humidity
14142;DHT22;7151;52.246;4.820;2023-05-29T00:00:12;19.70;56.40
14142;DHT22;7151;52.246;4.820;2023-05-29T00:02:39;19.70;56.50
14142;DHT22;7151;52.246;4.820;2023-05-29T00:05:05;19.70;56.50
14142;DHT22;7151;52.246;4.820;2023-05-29T00:07:31;19.60;56.50
14142;DHT22;7151;52.246;4.820;2023-05-29T00:09:58;19.60;56.60
14142;DHT22;7151;52.246;4.820;2023-05-29T00:12:23;19.60;56.60
14142;DHT22;7151;52.246;4.820;2023-05-29T00:14:49;19.60;56.70
14142;DHT22;7151;52.246;4.820;2023-05-29T00:17:15;19.50;56.70
14142;DHT22;7151;52.246;4.820;2023-05-29T00:19:44;19.50;56.80
14142;DHT22;7151;52.246;4.820;2023-05-29T00:22:09;19.50;56.90
14142;DHT22;7151;52.246;4.820;2023-05-29T00:24:35;19.50;56.90
14142;DHT22;7151;52.246;4.820;2023-05-29T00:27:01;19.50;56.90
14142;DHT22;7151;52.246;4.820;2023-05-29T00:29:26;19.40;56.90
14142;DHT22;7151;52.246;4.820;2023-05-29T00:31:52;19.40;56.90
14142;DHT22;7151;52.246;4.820;2023-05-29T00:34:19;19.40;56.90
14142;DHT22;7151;52.246;4.820;2023-05-29T00:36:45;19.40;57.00
14142;DHT22;7151;52.246;4.820;2023-05-29T00:39:11;19.30;56.90
14142;DHT22;7151;52.246;4.820;2023-05-29T00:41:37;19.30;57.00
14142;DHT22;7151;52.246;4.820;2023-05-29T00:44:03;19.30;56.90
14142;DHT22;7151;52.246;4.820;2023-05-29T00:46:30;19.20;56.90
14142;DHT22;7151;52.246;4.820;2023-05-29T00:48:58;19.20;57.00
14142;DHT22;7151;52.246;4.820;2023-05-29T00:51:24;19.20;57.00
14142;DHT22;7151;52.246;4.820;2023-05-29T00:53:50;19.20;57.10
14142;DHT22;7151;52.246;4.820;2023-05-29T00:56:17;19.10;57.00
14142;DHT22;7151;52.246;4.820;2023-05-29T00:58:43;19.10;56.90
14142;DHT22;7151;52.246;4.820;2023-05-29T01:01:09;19.10;56.90
14142;DHT22;7151;52.246;4.820;2023-05-29T01:03:35;19.00;56.90
14142;DHT22;7151;52.246;4.820;2023-05-29T01:06:01;19.00;56.90
14142;DHT22;7151;52.246;4.820;2023-05-29T01:08:28;19.00;57.00
14142;DHT22;7151;52.246;4.820;2023-05-29T01:10:59;19.00;57.00
14142;DHT22;7151;52.246;4.820;2023-05-29T01:13:30;19.00;57.00
14142;DHT22;7151;52.246;4.820;2023-05-29T01:16:13;18.90;57.00
14142;DHT22;7151;52.246;4.820;2023-05-29T01:19:16;18.90;57.00
14142;DHT22;7151;52.246;4.820;2023-05-29T01:24:48;18.90;57.00
14142;DHT22;7151;52.246;4.820;2023-05-29T01:27:17;18.80;57.00
14142;DHT22;7151;52.246;4.820;2023-05-29T01:29:43;18.80;57.00
14142;DHT22;7151;52.246;4.820;2023-05-29T01:32:10;18.80;57.00
14142;DHT22;7151;52.246;4.820;2023-05-29T01:34:36;18.70;57.00
14142;DHT22;7151;52.246;4.820;2023-05-29T01:37:01;18.70;57.10
14142;DHT22;7151;52.246;4.820;2023-05-29T01:39:27;18.70;57.10
14142;DHT22;7151;52.246;4.820;2023-05-29T01:41:54;18.70;57.30
14142;DHT22;7151;52.246;4.820;2023-05-29T01:44:21;18.60;57.30
14142;DHT22;7151;52.246;4.820;2023-05-29T01:46:48;18.60;57.30
14142;DHT22;7151;52.246;4.820;2023-05-29T01:49:15;18.60;57.40
14142;DHT22;7151;52.246;4.820;2023-05-29T01:51:41;18.60;57.40
14142;DHT22;7151;52.246;4.820;2023-05-29T01:54:07;18.60;57.50
14142;DHT22;7151;52.246;4.820;2023-05-29T01:56:33;18.60;57.50
14142;DHT22;7151;52.246;4.820;2023-05-29T01:59:01;18.50;58.00
14142;DHT22;7151;52.246;4.820;2023-05-29T02:01:27;18.50;57.50
14142;DHT22;7151;52.246;4.820;2023-05-29T02:03:53;18.50;57.60
14142;DHT22;7151;52.246;4.820;2023-05-29T02:06:19;18.40;57.60
14142;DHT22;7151;52.246;4.820;2023-05-29T02:08:44;18.40;57.70
14142;DHT22;7151;52.246;4.820;2023-05-29T02:11:10;18.40;57.80
14142;DHT22;7151;52.246;4.820;2023-05-29T02:13:36;18.40;57.80
14142;DHT22;7151;52.246;4.820;2023-05-29T02:16:02;18.40;57.80
14142;DHT22;7151;52.246;4.820;2023-05-29T02:18:27;18.40;57.80
14142;DHT22;7151;52.246;4.820;2023-05-29T02:20:53;18.40;57.80
14142;DHT22;7151;52.246;4.820;2023-05-29T02:23:18;18.40;57.80
14142;DHT22;7151;52.246;4.820;2023-05-29T02:25:45;18.40;57.90
14142;DHT22;7151;52.246;4.820;2023-05-29T02:28:11;18.40;57.90
14142;DHT22;7151;52.246;4.820;2023-05-29T02:30:36;18.20;57.90
14142;DHT22;7151;52.246;4.820;2023-05-29T02:33:02;18.30;57.90
14142;DHT22;7151;52.246;4.820;2023-05-29T02:35:27;18.30;57.90
14142;DHT22;7151;52.246;4.820;2023-05-29T02:37:53;18.30;57.90
14142;DHT22;7151;52.246;4.820;2023-05-29T02:40:19;18.30;57.90
14142;DHT22;7151;52.246;4.820;2023-05-29T02:42:45;18.30;58.00
14142;DHT22;7151;52.246;4.820;2023-05-29T02:45:11;18.20;58.00
14142;DHT22;7151;52.246;4.820;2023-05-29T02:47:37;18.20;57.90
14142;DHT22;7151;52.246;4.820;2023-05-29T02:50:03;18.20;57.90
14142;DHT22;7151;52.246;4.820;2023-05-29T02:52:29;18.20;57.90
14142;DHT22;7151;52.246;4.820;2023-05-29T02:54:58;18.20;58.00
14142;DHT22;7151;52.246;4.820;2023-05-29T02:57:24;18.20;58.00
14142;DHT22;7151;52.246;4.820;2023-05-29T02:59:50;18.10;58.00
14142;DHT22;7151;52.246;4.820;2023-05-29T03:02:20;18.10;58.00
14142;DHT22;7151;52.246;4.820;2023-05-29T03:04:46;18.10;58.00
14142;DHT22;7151;52.246;4.820;2023-05-29T03:07:11;18.10;58.00
14142;DHT22;7151;52.246;4.820;2023-05-29T03:09:37;18.10;58.00
14142;DHT22;7151;52.246;4.820;2023-05-29T03:12:03;18.10;58.00
14142;DHT22;7151;52.246;4.820;2023-05-29T03:14:29;18.10;58.10
14142;DHT22;7151;52.246;4.820;2023-05-29T03:16:55;18.10;58.00
14142;DHT22;7151;52.246;4.820;2023-05-29T03:19:21;18.00;58.00
14142;DHT22;7151;52.246;4.820;2023-05-29T03:21:47;18.00;58.00
14142;DHT22;7151;52.246;4.820;2023-05-29T03:24:12;18.00;58.00
14142;DHT22;7151;52.246;4.820;2023-05-29T03:26:40;18.00;58.00
14142;DHT22;7151;52.246;4.820;2023-05-29T03:29:06;18.00;58.00
14142;DHT22;7151;52.246;4.820;2023-05-29T03:31:32;18.00;58.00
14142;DHT22;7151;52.246;4.820;2023-05-29T03:33:58;18.00;58.00
14142;DHT22;7151;52.246;4.820;2023-05-29T03:36:24;18.00;58.00
14142;DHT22;7151;52.246;4.820;2023-05-29T03:38:50;18.00;58.10
14142;DHT22;7151;52.246;4.820;2023-05-29T03:41:15;17.90;58.00
14142;DHT22;7151;52.246;4.820;2023-05-29T03:43:41;17.90;58.00
14142;DHT22;7151;52.246;4.820;2023-05-29T03:46:07;17.90;58.00
14142;DHT22;7151;52.246;4.820;2023-05-29T03:48:32;17.90;58.10
14142;DHT22;7151;52.246;4.820;2023-05-29T03:50:58;17.90;58.10
14142;DHT22;7151;52.246;4.820;2023-05-29T03:53:23;17.90;58.10
14142;DHT22;7151;52.246;4.820;2023-05-29T03:55:49;17.90;58.00
14142;DHT22;7151;52.246;4.820;2023-05-29T03:58:14;17.90;58.10
14142;DHT22;7151;52.246;4.820;2023-05-29T04:00:41;17.90;58.10
14142;DHT22;7151;52.246;4.820;2023-05-29T04:03:06;17.90;58.10
14142;DHT22;7151;52.246;4.820;2023-05-29T04:05:32;17.90;58.00
14142;DHT22;7151;52.246;4.820;2023-05-29T04:07:57;17.90;58.10
14142;DHT22;7151;52.246;4.820;2023-05-29T04:10:23;17.90;58.10
14142;DHT22;7151;52.246;4.820;2023-05-29T04:12:50;17.90;58.00
14142;DHT22;7151;52.246;4.820;2023-05-29T04:15:15;17.90;58.00
14142;DHT22;7151;52.246;4.820;2023-05-29T04:17:41;17.90;58.00
14142;DHT22;7151;52.246;4.820;2023-05-29T04:20:07;17.90;58.10
14142;DHT22;7151;52.246;4.820;2023-05-29T04:22:36;17.90;58.10
14142;DHT22;7151;52.246;4.820;2023-05-29T04:25:02;17.90;58.20
14142;DHT22;7151;52.246;4.820;2023-05-29T04:27:29;17.90;58.30
14142;DHT22;7151;52.246;4.820;2023-05-29T04:29:55;18.00;58.40
14142;DHT22;7151;52.246;4.820;2023-05-29T04:32:21;18.00;58.50
14142;DHT22;7151;52.246;4.820;2023-05-29T04:34:46;17.90;58.50
14142;DHT22;7151;52.246;4.820;2023-05-29T04:37:13;17.90;58.60
14142;DHT22;7151;52.246;4.820;2023-05-29T04:39:38;17.90;58.70
14142;DHT22;7151;52.246;4.820;2023-05-29T04:42:04;17.90;58.80
14142;DHT22;7151;52.246;4.820;2023-05-29T04:44:30;17.90;58.80
14142;DHT22;7151;52.246;4.820;2023-05-29T04:46:56;17.90;58.90
14142;DHT22;7151;52.246;4.820;2023-05-29T04:49:24;17.90;59.00
14142;DHT22;7151;52.246;4.820;2023-05-29T04:51:49;17.90;59.00
14142;DHT22;7151;52.246;4.820;2023-05-29T04:54:18;17.90;59.00
14142;DHT22;7151;52.246;4.820;2023-05-29T04:56:45;17.90;59.10
14142;DHT22;7151;52.246;4.820;2023-05-29T04:59:11;17.90;59.20
14142;DHT22;7151;52.246;4.820;2023-05-29T05:01:37;17.90;59.20
14142;DHT22;7151;52.246;4.820;2023-05-29T05:04:03;17.80;59.20
14142;DHT22;7151;52.246;4.820;2023-05-29T05:06:29;17.90;59.30
14142;DHT22;7151;52.246;4.820;2023-05-29T05:08:54;17.90;59.30
14142;DHT22;7151;52.246;4.820;2023-05-29T05:11:22;17.90;59.40
14142;DHT22;7151;52.246;4.820;2023-05-29T05:13:49;17.80;59.20
14142;DHT22;7151;52.246;4.820;2023-05-29T05:16:14;17.90;59.00
14142;DHT22;7151;52.246;4.820;2023-05-29T05:18:40;17.80;58.70
14142;DHT22;7151;52.246;4.820;2023-05-29T05:21:05;17.90;58.60
14142;DHT22;7151;52.246;4.820;2023-05-29T05:23:31;17.80;58.40
14142;DHT22;7151;52.246;4.820;2023-05-29T05:25:57;17.80;58.40
14142;DHT22;7151;52.246;4.820;2023-05-29T05:28:23;17.80;58.40
14142;DHT22;7151;52.246;4.820;2023-05-29T05:30:49;17.80;58.30
14142;DHT22;7151;52.246;4.820;2023-05-29T05:33:14;17.80;58.40
14142;DHT22;7151;52.246;4.820;2023-05-29T05:35:40;17.80;58.30
14142;DHT22;7151;52.246;4.820;2023-05-29T05:38:06;17.80;58.40
14142;DHT22;7151;52.246;4.820;2023-05-29T05:40:32;17.80;58.40
14142;DHT22;7151;52.246;4.820;2023-05-29T05:42:57;17.80;58.40
14142;DHT22;7151;52.246;4.820;2023-05-29T05:45:23;17.80;58.40
14142;DHT22;7151;52.246;4.820;2023-05-29T05:47:49;17.80;58.30
14142;DHT22;7151;52.246;4.820;2023-05-29T05:50:15;17.80;58.30
14142;DHT22;7151;52.246;4.820;2023-05-29T05:52:41;17.80;58.90
14142;DHT22;7151;52.246;4.820;2023-05-29T05:55:07;17.80;58.30
14142;DHT22;7151;52.246;4.820;2023-05-29T05:57:33;17.80;58.40
14142;DHT22;7151;52.246;4.820;2023-05-29T05:59:59;17.80;58.30
14142;DHT22;7151;52.246;4.820;2023-05-29T06:02:25;17.80;58.30
14142;DHT22;7151;52.246;4.820;2023-05-29T06:04:51;17.80;58.30
14142;DHT22;7151;52.246;4.820;2023-05-29T06:07:16;17.80;58.20
14142;DHT22;7151;52.246;4.820;2023-05-29T06:09:43;17.80;58.20
14142;DHT22;7151;52.246;4.820;2023-05-29T06:12:11;17.80;58.10
14142;DHT22;7151;52.246;4.820;2023-05-29T06:14:37;17.80;58.00
14142;DHT22;7151;52.246;4.820;2023-05-29T06:17:03;17.80;57.90
14142;DHT22;7151;52.246;4.820;2023-05-29T06:19:28;17.80;57.90
14142;DHT22;7151;52.246;4.820;2023-05-29T06:21:54;17.80;57.80
14142;DHT22;7151;52.246;4.820;2023-05-29T06:24:20;17.70;57.60
14142;DHT22;7151;52.246;4.820;2023-05-29T06:26:45;17.70;57.70
14142;DHT22;7151;52.246;4.820;2023-05-29T06:29:11;17.70;57.70
14142;DHT22;7151;52.246;4.820;2023-05-29T06:31:36;17.80;57.70
14142;DHT22;7151;52.246;4.820;2023-05-29T06:34:02;17.80;57.80
14142;DHT22;7151;52.246;4.820;2023-05-29T06:36:27;17.80;57.90
14142;DHT22;7151;52.246;4.820;2023-05-29T06:38:53;17.80;57.80
14142;DHT22;7151;52.246;4.820;2023-05-29T06:41:18;17.80;58.00
14142;DHT22;7151;52.246;4.820;2023-05-29T06:43:44;17.80;58.30
14142;DHT22;7151;52.246;4.820;2023-05-29T06:46:10;17.90;58.90
14142;DHT22;7151;52.246;4.820;2023-05-29T06:48:36;18.00;58.20
14142;DHT22;7151;52.246;4.820;2023-05-29T06:51:04;18.10;58.00
14142;DHT22;7151;52.246;4.820;2023-05-29T06:53:37;18.10;57.70
14142;DHT22;7151;52.246;4.820;2023-05-29T06:56:02;18.10;57.60
14142;DHT22;7151;52.246;4.820;2023-05-29T06:58:29;18.10;57.60
14142;DHT22;7151;52.246;4.820;2023-05-29T07:00:55;18.10;57.50
14142;DHT22;7151;52.246;4.820;2023-05-29T07:03:21;18.00;57.40
14142;DHT22;7151;52.246;4.820;2023-05-29T07:05:47;18.00;57.40
14142;DHT22;7151;52.246;4.820;2023-05-29T07:08:12;18.00;57.50
14142;DHT22;7151;52.246;4.820;2023-05-29T07:10:38;18.00;57.60
14142;DHT22;7151;52.246;4.820;2023-05-29T07:13:03;18.00;57.60
14142;DHT22;7151;52.246;4.820;2023-05-29T07:15:31;18.00;57.60
14142;DHT22;7151;52.246;4.820;2023-05-29T07:17:57;18.00;57.60
14142;DHT22;7151;52.246;4.820;2023-05-29T07:20:22;18.00;57.70
14142;DHT22;7151;52.246;4.820;2023-05-29T07:22:48;18.00;57.80
14142;DHT22;7151;52.246;4.820;2023-05-29T07:25:13;18.00;57.90
14142;DHT22;7151;52.246;4.820;2023-05-29T07:27:39;18.00;57.90
14142;DHT22;7151;52.246;4.820;2023-05-29T07:30:05;18.10;57.80
14142;DHT22;7151;52.246;4.820;2023-05-29T07:32:31;18.10;57.60
14142;DHT22;7151;52.246;4.820;2023-05-29T07:34:56;18.10;57.60
14142;DHT22;7151;52.246;4.820;2023-05-29T07:37:22;18.10;57.80
14142;DHT22;7151;52.246;4.820;2023-05-29T07:39:47;18.10;57.50
14142;DHT22;7151;52.246;4.820;2023-05-29T07:42:13;18.10;57.60
14142;DHT22;7151;52.246;4.820;2023-05-29T07:44:38;18.10;57.60
14142;DHT22;7151;52.246;4.820;2023-05-29T07:47:07;18.10;57.70
14142;DHT22;7151;52.246;4.820;2023-05-29T07:49:32;18.10;57.80
14142;DHT22;7151;52.246;4.820;2023-05-29T07:51:58;18.20;57.80
14142;DHT22;7151;52.246;4.820;2023-05-29T07:54:23;18.20;57.60
14142;DHT22;7151;52.246;4.820;2023-05-29T07:56:52;18.20;57.60
14142;DHT22;7151;52.246;4.820;2023-05-29T07:59:17;18.30;57.60
14142;DHT22;7151;52.246;4.820;2023-05-29T08:01:46;18.30;57.60
14142;DHT22;7151;52.246;4.820;2023-05-29T08:04:12;18.30;57.50
14142;DHT22;7151;52.246;4.820;2023-05-29T08:06:38;18.30;57.60
14142;DHT22;7151;52.246;4.820;2023-05-29T08:09:04;18.30;57.60
14142;DHT22;7151;52.246;4.820;2023-05-29T08:11:30;18.40;57.70
14142;DHT22;7151;52.246;4.820;2023-05-29T08:13:55;18.40;57.60
14142;DHT22;7151;52.246;4.820;2023-05-29T08:16:21;18.50;57.50
14142;DHT22;7151;52.246;4.820;2023-05-29T08:18:47;18.50;57.60
14142;DHT22;7151;52.246;4.820;2023-05-29T08:21:13;18.60;57.60
14142;DHT22;7151;52.246;4.820;2023-05-29T08:23:39;18.60;57.40
14142;DHT22;7151;52.246;4.820;2023-05-29T08:26:05;18.70;57.30
14142;DHT22;7151;52.246;4.820;2023-05-29T08:28:30;18.70;57.30
14142;DHT22;7151;52.246;4.820;2023-05-29T08:30:56;18.70;57.10
14142;DHT22;7151;52.246;4.820;2023-05-29T08:33:21;18.70;57.00
14142;DHT22;7151;52.246;4.820;2023-05-29T08:35:47;18.70;56.80
14142;DHT22;7151;52.246;4.820;2023-05-29T08:38:12;18.70;56.70
14142;DHT22;7151;52.246;4.820;2023-05-29T08:40:38;18.70;57.20
14142;DHT22;7151;52.246;4.820;2023-05-29T08:43:15;18.70;56.60
14142;DHT22;7151;52.246;4.820;2023-05-29T08:45:45;18.70;56.60
14142;DHT22;7151;52.246;4.820;2023-05-29T08:48:11;18.70;56.80
14142;DHT22;7151;52.246;4.820;2023-05-29T08:50:43;18.70;56.80
14142;DHT22;7151;52.246;4.820;2023-05-29T08:53:10;18.70;56.80
14142;DHT22;7151;52.246;4.820;2023-05-29T08:55:36;18.70;57.00
14142;DHT22;7151;52.246;4.820;2023-05-29T08:58:02;18.80;57.10
14142;DHT22;7151;52.246;4.820;2023-05-29T09:00:28;18.80;57.00
14142;DHT22;7151;52.246;4.820;2023-05-29T09:02:54;18.90;57.40
14142;DHT22;7151;52.246;4.820;2023-05-29T09:05:21;18.90;56.70
14142;DHT22;7151;52.246;4.820;2023-05-29T09:07:47;18.90;56.70
14142;DHT22;7151;52.246;4.820;2023-05-29T09:10:12;19.00;56.80
14142;DHT22;7151;52.246;4.820;2023-05-29T09:12:38;19.00;56.80
14142;DHT22;7151;52.246;4.820;2023-05-29T09:15:22;19.10;56.70
14142;DHT22;7151;52.246;4.820;2023-05-29T09:17:52;19.10;56.50
14142;DHT22;7151;52.246;4.820;2023-05-29T09:20:18;19.10;56.40
14142;DHT22;7151;52.246;4.820;2023-05-29T09:23:05;19.10;56.30
14142;DHT22;7151;52.246;4.820;2023-05-29T09:25:32;19.20;56.20
14142;DHT22;7151;52.246;4.820;2023-05-29T09:28:00;19.10;56.30
14142;DHT22;7151;52.246;4.820;2023-05-29T09:30:46;19.20;56.30
14142;DHT22;7151;52.246;4.820;2023-05-29T09:33:15;19.20;56.10
14142;DHT22;7151;52.246;4.820;2023-05-29T09:35:43;19.30;56.10
14142;DHT22;7151;52.246;4.820;2023-05-29T09:38:11;19.30;56.10
14142;DHT22;7151;52.246;4.820;2023-05-29T09:40:38;19.30;56.20
14142;DHT22;7151;52.246;4.820;2023-05-29T09:45:49;19.30;56.30
14142;DHT22;7151;52.246;4.820;2023-05-29T09:48:17;19.40;56.50
14142;DHT22;7151;52.246;4.820;2023-05-29T09:50:44;19.40;56.50
14142;DHT22;7151;52.246;4.820;2023-05-29T09:53:24;19.40;56.30
14142;DHT22;7151;52.246;4.820;2023-05-29T09:55:51;19.50;56.40
14142;DHT22;7151;52.246;4.820;2023-05-29T09:58:21;19.60;56.50
14142;DHT22;7151;52.246;4.820;2023-05-29T10:00:48;19.50;56.40
14142;DHT22;7151;52.246;4.820;2023-05-29T10:03:15;19.60;56.90
14142;DHT22;7151;52.246;4.820;2023-05-29T10:05:42;19.70;57.80
14142;DHT22;7151;52.246;4.820;2023-05-29T10:08:13;19.90;58.10
14142;DHT22;7151;52.246;4.820;2023-05-29T10:10:45;20.00;58.00
14142;DHT22;7151;52.246;4.820;2023-05-29T10:13:15;20.30;58.10
14142;DHT22;7151;52.246;4.820;2023-05-29T10:15:43;20.50;57.90
14142;DHT22;7151;52.246;4.820;2023-05-29T10:18:16;20.60;57.60
14142;DHT22;7151;52.246;4.820;2023-05-29T10:20:49;20.90;57.50
14142;DHT22;7151;52.246;4.820;2023-05-29T10:23:16;21.10;57.10
14142;DHT22;7151;52.246;4.820;2023-05-29T10:25:49;21.20;56.80
14142;DHT22;7151;52.246;4.820;2023-05-29T10:28:16;21.40;56.60
14142;DHT22;7151;52.246;4.820;2023-05-29T10:30:47;21.50;56.30
14142;DHT22;7151;52.246;4.820;2023-05-29T10:33:40;21.60;56.10
14142;DHT22;7151;52.246;4.820;2023-05-29T10:36:20;21.80;55.90
14142;DHT22;7151;52.246;4.820;2023-05-29T10:38:50;21.90;55.30
14142;DHT22;7151;52.246;4.820;2023-05-29T10:43:57;21.90;54.40
14142;DHT22;7151;52.246;4.820;2023-05-29T10:49:21;21.90;54.00
14142;DHT22;7151;52.246;4.820;2023-05-29T10:51:47;21.80;54.00
14142;DHT22;7151;52.246;4.820;2023-05-29T10:54:19;21.70;54.00
14142;DHT22;7151;52.246;4.820;2023-05-29T10:56:52;21.70;54.10
14142;DHT22;7151;52.246;4.820;2023-05-29T10:59:18;21.70;54.30
14142;DHT22;7151;52.246;4.820;2023-05-29T11:01:44;21.70;54.40
14142;DHT22;7151;52.246;4.820;2023-05-29T11:06:47;21.70;54.60
14142;DHT22;7151;52.246;4.820;2023-05-29T11:12:21;21.70;54.00
14142;DHT22;7151;52.246;4.820;2023-05-29T11:15:04;21.70;53.70
14142;DHT22;7151;52.246;4.820;2023-05-29T11:19:56;21.80;53.90
14142;DHT22;7151;52.246;4.820;2023-05-29T11:22:30;21.80;53.70
14142;DHT22;7151;52.246;4.820;2023-05-29T11:24:59;21.80;53.80
14142;DHT22;7151;52.246;4.820;2023-05-29T11:27:26;21.80;53.80
14142;DHT22;7151;52.246;4.820;2023-05-29T11:29:52;21.90;53.80
14142;DHT22;7151;52.246;4.820;2023-05-29T11:32:22;21.90;53.90
14142;DHT22;7151;52.246;4.820;2023-05-29T11:34:52;22.00;54.10
14142;DHT22;7151;52.246;4.820;2023-05-29T11:37:19;22.00;54.00
14142;DHT22;7151;52.246;4.820;2023-05-29T11:39:45;22.10;54.00
14142;DHT22;7151;52.246;4.820;2023-05-29T11:42:11;22.10;53.60
14142;DHT22;7151;52.246;4.820;2023-05-29T11:44:37;22.10;53.30
14142;DHT22;7151;52.246;4.820;2023-05-29T11:47:03;22.20;53.20
14142;DHT22;7151;52.246;4.820;2023-05-29T11:49:30;22.20;53.30
14142;DHT22;7151;52.246;4.820;2023-05-29T11:52:11;22.20;53.30
14142;DHT22;7151;52.246;4.820;2023-05-29T11:54:37;22.30;53.50
14142;DHT22;7151;52.246;4.820;2023-05-29T11:57:02;22.40;54.00
14142;DHT22;7151;52.246;4.820;2023-05-29T11:59:31;22.40;53.40
14142;DHT22;7151;52.246;4.820;2023-05-29T12:01:57;22.50;53.50
14142;DHT22;7151;52.246;4.820;2023-05-29T12:04:22;22.50;53.40
14142;DHT22;7151;52.246;4.820;2023-05-29T12:06:48;22.60;53.50
14142;DHT22;7151;52.246;4.820;2023-05-29T12:09:29;22.70;53.80
14142;DHT22;7151;52.246;4.820;2023-05-29T12:12:02;22.80;53.60
14142;DHT22;7151;52.246;4.820;2023-05-29T12:14:28;22.90;54.00
14142;DHT22;7151;52.246;4.820;2023-05-29T12:16:53;23.00;53.40
14142;DHT22;7151;52.246;4.820;2023-05-29T12:19:19;23.10;53.20
14142;DHT22;7151;52.246;4.820;2023-05-29T12:21:45;23.20;53.10
14142;DHT22;7151;52.246;4.820;2023-05-29T12:24:10;23.20;52.70
14142;DHT22;7151;52.246;4.820;2023-05-29T12:26:36;23.30;52.20
14142;DHT22;7151;52.246;4.820;2023-05-29T12:29:03;23.30;52.10
14142;DHT22;7151;52.246;4.820;2023-05-29T12:31:32;23.30;52.10
14142;DHT22;7151;52.246;4.820;2023-05-29T12:34:07;23.30;52.00
14142;DHT22;7151;52.246;4.820;2023-05-29T12:36:32;23.30;52.00
14142;DHT22;7151;52.246;4.820;2023-05-29T12:38:58;23.30;51.90
14142;DHT22;7151;52.246;4.820;2023-05-29T12:41:25;23.30;51.80
14142;DHT22;7151;52.246;4.820;2023-05-29T12:43:53;23.30;51.70
14142;DHT22;7151;52.246;4.820;2023-05-29T12:46:20;23.30;51.70
14142;DHT22;7151;52.246;4.820;2023-05-29T12:48:45;23.30;51.70
14142;DHT22;7151;52.246;4.820;2023-05-29T12:51:11;23.30;51.50
14142;DHT22;7151;52.246;4.820;2023-05-29T12:53:37;23.30;51.50
14142;DHT22;7151;52.246;4.820;2023-05-29T12:56:02;23.40;51.50
14142;DHT22;7151;52.246;4.820;2023-05-29T12:58:28;23.40;51.50
14142;DHT22;7151;52.246;4.820;2023-05-29T13:00:53;23.50;51.30
14142;DHT22;7151;52.246;4.820;2023-05-29T13:03:21;23.50;51.20
14142;DHT22;7151;52.246;4.820;2023-05-29T13:05:49;23.50;50.90
14142;DHT22;7151;52.246;4.820;2023-05-29T13:08:15;23.60;50.80
14142;DHT22;7151;52.246;4.820;2023-05-29T13:10:41;23.70;51.10
14142;DHT22;7151;52.246;4.820;2023-05-29T13:13:06;23.70;50.90
14142;DHT22;7151;52.246;4.820;2023-05-29T13:15:32;23.90;50.80
14142;DHT22;7151;52.246;4.820;2023-05-29T13:17:59;23.80;50.40
14142;DHT22;7151;52.246;4.820;2023-05-29T13:20:24;23.80;50.10
14142;DHT22;7151;52.246;4.820;2023-05-29T13:22:50;23.90;50.00
14142;DHT22;7151;52.246;4.820;2023-05-29T13:25:17;23.90;50.00
14142;DHT22;7151;52.246;4.820;2023-05-29T13:27:46;23.90;49.90
14142;DHT22;7151;52.246;4.820;2023-05-29T13:30:13;24.00;49.90
14142;DHT22;7151;52.246;4.820;2023-05-29T13:32:41;24.10;50.10
14142;DHT22;7151;52.246;4.820;2023-05-29T13:35:07;24.10;50.10
14142;DHT22;7151;52.246;4.820;2023-05-29T13:37:33;24.20;49.90
14142;DHT22;7151;52.246;4.820;2023-05-29T13:39:59;24.30;49.60
14142;DHT22;7151;52.246;4.820;2023-05-29T13:42:25;24.40;49.50
14142;DHT22;7151;52.246;4.820;2023-05-29T13:44:50;24.40;49.30
14142;DHT22;7151;52.246;4.820;2023-05-29T13:47:16;24.50;49.40
14142;DHT22;7151;52.246;4.820;2023-05-29T13:49:42;24.50;49.00
14142;DHT22;7151;52.246;4.820;2023-05-29T13:52:07;24.60;49.40
14142;DHT22;7151;52.246;4.820;2023-05-29T13:54:33;24.60;48.80
14142;DHT22;7151;52.246;4.820;2023-05-29T13:57:03;24.60;48.60
14142;DHT22;7151;52.246;4.820;2023-05-29T13:59:30;24.70;48.60
14142;DHT22;7151;52.246;4.820;2023-05-29T14:01:56;24.70;48.30
14142;DHT22;7151;52.246;4.820;2023-05-29T14:04:22;24.70;48.10
14142;DHT22;7151;52.246;4.820;2023-05-29T14:06:47;24.80;48.10
14142;DHT22;7151;52.246;4.820;2023-05-29T14:09:13;24.80;48.30
14142;DHT22;7151;52.246;4.820;2023-05-29T14:11:39;24.80;48.50
14142;DHT22;7151;52.246;4.820;2023-05-29T14:14:07;24.90;48.80
14142;DHT22;7151;52.246;4.820;2023-05-29T14:16:33;25.00;48.80
14142;DHT22;7151;52.246;4.820;2023-05-29T14:18:59;25.10;48.80
14142;DHT22;7151;52.246;4.820;2023-05-29T14:21:25;25.30;48.40
14142;DHT22;7151;52.246;4.820;2023-05-29T14:23:51;25.40;47.90
14142;DHT22;7151;52.246;4.820;2023-05-29T14:26:16;25.50;47.60
14142;DHT22;7151;52.246;4.820;2023-05-29T14:28:42;25.50;47.60
14142;DHT22;7151;52.246;4.820;2023-05-29T14:31:08;25.50;47.20
14142;DHT22;7151;52.246;4.820;2023-05-29T14:33:33;25.40;46.80
14142;DHT22;7151;52.246;4.820;2023-05-29T14:35:59;25.40;46.60
14142;DHT22;7151;52.246;4.820;2023-05-29T14:38:25;25.40;46.40
14142;DHT22;7151;52.246;4.820;2023-05-29T14:40:51;25.30;46.70
14142;DHT22;7151;52.246;4.820;2023-05-29T14:43:17;25.40;47.10
14142;DHT22;7151;52.246;4.820;2023-05-29T14:45:42;25.40;47.00
14142;DHT22;7151;52.246;4.820;2023-05-29T14:48:08;25.50;47.10
14142;DHT22;7151;52.246;4.820;2023-05-29T14:50:33;25.60;47.00
14142;DHT22;7151;52.246;4.820;2023-05-29T14:52:59;25.70;46.70
14142;DHT22;7151;52.246;4.820;2023-05-29T14:55:24;25.80;46.30
14142;DHT22;7151;52.246;4.820;2023-05-29T14:57:50;25.80;45.80
14142;DHT22;7151;52.246;4.820;2023-05-29T15:00:16;25.80;45.60
14142;DHT22;7151;52.246;4.820;2023-05-29T15:02:42;25.80;45.60
14142;DHT22;7151;52.246;4.820;2023-05-29T15:05:07;25.90;45.60
14142;DHT22;7151;52.246;4.820;2023-05-29T15:07:33;25.90;45.60
14142;DHT22;7151;52.246;4.820;2023-05-29T15:09:59;26.00;45.60
14142;DHT22;7151;52.246;4.820;2023-05-29T15:12:26;26.10;45.60
14142;DHT22;7151;52.246;4.820;2023-05-29T15:14:51;26.20;45.60
14142;DHT22;7151;52.246;4.820;2023-05-29T15:17:17;26.30;45.60
14142;DHT22;7151;52.246;4.820;2023-05-29T15:19:46;26.40;45.60
14142;DHT22;7151;52.246;4.820;2023-05-29T15:22:11;26.40;45.50
14142;DHT22;7151;52.246;4.820;2023-05-29T15:24:37;26.50;45.40
14142;DHT22;7151;52.246;4.820;2023-05-29T15:27:03;26.60;45.40
14142;DHT22;7151;52.246;4.820;2023-05-29T15:29:33;26.60;45.30
14142;DHT22;7151;52.246;4.820;2023-05-29T15:32:00;26.70;45.20
14142;DHT22;7151;52.246;4.820;2023-05-29T15:34:25;26.70;45.20
14142;DHT22;7151;52.246;4.820;2023-05-29T15:36:51;26.70;45.10
14142;DHT22;7151;52.246;4.820;2023-05-29T15:39:16;26.80;45.10
14142;DHT22;7151;52.246;4.820;2023-05-29T15:41:42;26.80;45.00
14142;DHT22;7151;52.246;4.820;2023-05-29T15:44:08;26.80;45.00
14142;DHT22;7151;52.246;4.820;2023-05-29T15:46:33;26.80;44.90
14142;DHT22;7151;52.246;4.820;2023-05-29T15:48:59;26.80;44.90
14142;DHT22;7151;52.246;4.820;2023-05-29T15:51:24;26.80;44.80
14142;DHT22;7151;52.246;4.820;2023-05-29T15:53:50;26.80;44.60
14142;DHT22;7151;52.246;4.820;2023-05-29T15:56:15;26.80;44.50
14142;DHT22;7151;52.246;4.820;2023-05-29T15:58:41;26.80;44.40
14142;DHT22;7151;52.246;4.820;2023-05-29T16:01:06;26.70;44.30